createdAt,value
2022-10-08T00:00:48.553Z,67.42
2022-10-08T00:03:16.106Z,66.99
2022-10-08T00:05:42.709Z,68.45
2022-10-08T00:08:09.820Z,68.73
2022-10-08T00:10:37.264Z,70.19
2022-10-08T00:13:04.513Z,69.13
2022-10-08T00:15:36.376Z,68.93
2022-10-08T00:18:03.017Z,67.97
2022-10-08T00:20:29.637Z,68.79
2022-10-08T00:22:56.257Z,68.21
2022-10-08T00:25:23.001Z,68.46
2022-10-08T00:27:50.224Z,68.29
2022-10-08T00:30:16.777Z,67.71
2022-10-08T00:32:44.549Z,67.70
2022-10-08T00:35:11.388Z,67.37
2022-10-08T00:37:37.892Z,67.33
2022-10-08T00:40:04.720Z,66.90
2022-10-08T00:42:31.301Z,67.11
2022-10-08T00:45:00.033Z,67.27
2022-10-08T00:47:32.479Z,66.88
2022-10-08T00:50:08.610Z,67.37
2022-10-08T00:52:55.904Z,67.37
2022-10-08T00:55:24.382Z,67.90
2022-10-08T00:57:52.005Z,67.99
2022-10-08T01:00:21.636Z,67.79
2022-10-08T01:02:48.825Z,68.17
2022-10-08T01:05:19.576Z,69.24
2022-10-08T01:07:52.126Z,70.05
2022-10-08T01:10:18.912Z,72.32
2022-10-08T01:13:13.571Z,71.77
2022-10-08T01:15:44.679Z,71.80
2022-10-08T01:18:43.597Z,73.19
2022-10-08T01:21:14.568Z,73.45
2022-10-08T01:24:14.656Z,72.71
2022-10-08T01:27:04.601Z,73.92
2022-10-08T01:29:40.626Z,74.06
2022-10-08T01:32:17.403Z,72.95
2022-10-08T01:34:58.160Z,72.40
2022-10-08T01:37:31.888Z,71.66
2022-10-08T01:40:00.932Z,71.71
2022-10-08T01:42:27.978Z,72.70
2022-10-08T01:44:58.211Z,71.37
2022-10-08T01:47:30.915Z,71.88
2022-10-08T01:50:01.482Z,72.52
2022-10-08T01:52:34.145Z,72.71
2022-10-08T01:55:04.528Z,71.31
2022-10-08T01:57:33.263Z,71.06
2022-10-08T02:00:09.389Z,70.25
2022-10-08T02:02:38.951Z,70.07
2022-10-08T02:05:05.999Z,69.81
2022-10-08T02:07:37.474Z,69.65
2022-10-08T02:10:09.474Z,69.87
2022-10-08T02:12:36.713Z,69.83
2022-10-08T02:15:04.506Z,70.12
2022-10-08T02:17:39.259Z,70.20
2022-10-08T02:20:16.819Z,70.72
2022-10-08T02:22:54.250Z,70.34
2022-10-08T02:25:30.455Z,70.62
2022-10-08T02:28:31.571Z,70.68
2022-10-08T02:31:07.674Z,70.14
2022-10-08T02:33:48.185Z,69.32
2022-10-08T02:36:15.384Z,68.96
2022-10-08T02:38:44.273Z,68.71
2022-10-08T02:41:11.508Z,68.55
2022-10-08T02:43:43.083Z,68.92
2022-10-08T02:46:15.675Z,70.12
2022-10-08T02:48:45.634Z,69.46
2022-10-08T02:51:15.575Z,69.33
2022-10-08T02:53:42.189Z,69.41
2022-10-08T02:56:15.271Z,70.51
2022-10-08T02:58:43.089Z,70.36
2022-10-08T03:01:19.823Z,70.95
2022-10-08T03:03:49.166Z,70.99
2022-10-08T03:06:16.450Z,70.08
2022-10-08T03:08:45.124Z,69.42
2022-10-08T03:11:12.617Z,69.22
2022-10-08T03:13:42.831Z,69.41
2022-10-08T03:16:12.093Z,69.59
2022-10-08T03:18:39.294Z,69.25
2022-10-08T03:21:08.260Z,68.83
2022-10-08T03:23:37.077Z,68.68
2022-10-08T03:26:03.603Z,68.84
2022-10-08T03:28:30.521Z,68.89
2022-10-08T03:30:57.623Z,68.76
2022-10-08T03:33:24.373Z,68.53
2022-10-08T03:35:50.929Z,68.09
2022-10-08T03:38:17.504Z,67.95
2022-10-08T03:40:54.644Z,68.07
2022-10-08T03:43:21.205Z,67.91
2022-10-08T03:45:54.631Z,68.10
2022-10-08T03:48:22.100Z,68.95
2022-10-08T03:50:53.712Z,68.60
2022-10-08T03:53:20.820Z,68.46
2022-10-08T03:55:47.625Z,68.22
2022-10-08T03:58:15.105Z,68.44
2022-10-08T04:00:42.234Z,68.02
2022-10-08T04:03:09.153Z,68.38
2022-10-08T04:05:35.753Z,69.68
2022-10-08T04:08:02.658Z,68.63
2022-10-08T04:10:29.253Z,68.69
2022-10-08T04:12:55.849Z,68.44
2022-10-08T04:15:22.446Z,68.42
2022-10-08T04:17:48.963Z,68.40
2022-10-08T04:20:15.524Z,68.41
2022-10-08T04:22:42.546Z,68.45
2022-10-08T04:25:09.103Z,67.99
2022-10-08T04:27:35.631Z,68.03
2022-10-08T04:30:02.166Z,69.08
2022-10-08T04:32:28.726Z,68.59
2022-10-08T04:34:55.323Z,69.78
2022-10-08T04:37:22.537Z,68.98
2022-10-08T04:39:49.117Z,71.26
2022-10-08T04:42:15.633Z,69.71
2022-10-08T04:44:42.168Z,69.51
2022-10-08T04:47:09.119Z,69.04
2022-10-08T04:49:35.719Z,68.96
2022-10-08T04:52:02.196Z,68.51
2022-10-08T04:54:28.747Z,69.27
2022-10-08T04:56:55.317Z,68.58
2022-10-08T04:59:21.919Z,68.60
2022-10-08T05:01:48.521Z,69.25
2022-10-08T05:04:15.125Z,71.23
2022-10-08T05:06:41.617Z,69.01
2022-10-08T05:09:08.961Z,69.47
2022-10-08T05:11:35.782Z,69.60
2022-10-08T05:14:02.688Z,69.67
2022-10-08T05:16:29.514Z,68.96
2022-10-08T05:18:56.520Z,70.91
2022-10-08T05:21:25.880Z,70.22
2022-10-08T05:24:00.846Z,69.49
2022-10-08T05:26:56.267Z,68.98
2022-10-08T05:29:16.753Z,70.26
2022-10-08T05:31:43.308Z,69.77
2022-10-08T05:34:09.998Z,70.54
2022-10-08T05:36:36.543Z,71.47
2022-10-08T05:39:04.692Z,70.69
2022-10-08T05:41:33.581Z,70.57
2022-10-08T05:44:02.082Z,70.47
2022-10-08T05:46:29.949Z,69.97
2022-10-08T05:49:03.297Z,70.12
2022-10-08T05:51:30.079Z,70.56
2022-10-08T05:53:57.879Z,72.69
2022-10-08T05:56:25.859Z,73.25
2022-10-08T05:58:53.551Z,73.27
2022-10-08T06:01:27.939Z,73.23
2022-10-08T06:03:56.922Z,71.51
2022-10-08T06:06:24.351Z,73.20
2022-10-08T06:08:59.873Z,72.44
2022-10-08T06:11:27.498Z,71.87
2022-10-08T06:13:57.683Z,71.58
2022-10-08T06:16:24.816Z,71.68
2022-10-08T06:18:51.735Z,73.13
2022-10-08T06:21:23.605Z,73.02
2022-10-08T06:23:57.795Z,72.00
2022-10-08T06:26:27.296Z,72.07
2022-10-08T06:28:55.301Z,71.73
2022-10-08T06:31:22.122Z,72.49
2022-10-08T06:33:48.903Z,73.06
2022-10-08T06:36:26.658Z,71.61
2022-10-08T06:38:57.953Z,72.95
2022-10-08T06:41:27.279Z,73.72
2022-10-08T06:43:54.352Z,73.05
2022-10-08T06:46:21.116Z,74.64
2022-10-08T06:48:47.970Z,73.89
2022-10-08T06:51:16.766Z,73.81
2022-10-08T06:53:44.084Z,72.81
2022-10-08T06:56:14.499Z,73.13
2022-10-08T06:58:42.284Z,72.06
2022-10-08T07:01:09.984Z,72.24
2022-10-08T07:03:36.969Z,71.10
2022-10-08T07:06:08.759Z,70.79
2022-10-08T07:08:38.471Z,70.88
2022-10-08T07:11:09.604Z,70.87
2022-10-08T07:13:37.279Z,70.77
2022-10-08T07:16:25.042Z,70.94
2022-10-08T07:18:52.587Z,70.56
2022-10-08T07:21:19.647Z,70.63
2022-10-08T07:23:46.233Z,70.58
2022-10-08T07:26:16.261Z,70.05
2022-10-08T07:28:44.108Z,69.64
2022-10-08T07:31:15.530Z,68.90
2022-10-08T07:33:42.120Z,68.77
2022-10-08T07:36:09.981Z,68.50
2022-10-08T07:38:36.454Z,69.08
2022-10-08T07:41:02.850Z,67.50
2022-10-08T07:43:29.258Z,67.34
2022-10-08T07:45:55.753Z,66.64
2022-10-08T07:48:22.231Z,66.98
2022-10-08T07:50:48.709Z,65.99
2022-10-08T07:53:15.129Z,66.22
2022-10-08T07:55:41.530Z,66.18
2022-10-08T07:58:08.421Z,64.97
2022-10-08T08:00:34.870Z,62.70
2022-10-08T08:03:01.591Z,61.36
2022-10-08T08:05:27.995Z,61.22
2022-10-08T08:07:54.425Z,60.13
2022-10-08T08:10:21.227Z,59.37
2022-10-08T08:12:48.015Z,57.51
2022-10-08T08:15:15.211Z,54.54
2022-10-08T08:17:41.591Z,53.88
2022-10-08T08:20:08.485Z,55.67
2022-10-08T08:22:35.595Z,56.25
2022-10-08T08:25:02.050Z,55.58
2022-10-08T08:27:28.427Z,55.93
2022-10-08T08:29:55.301Z,57.72
2022-10-08T08:32:26.117Z,54.44
2022-10-08T08:34:54.851Z,54.79
2022-10-08T08:37:21.314Z,55.95
2022-10-08T08:39:47.679Z,53.88
2022-10-08T08:42:33.449Z,52.62
2022-10-08T08:45:00.813Z,52.73
2022-10-08T08:47:36.817Z,54.07
2022-10-08T08:50:03.217Z,52.23
2022-10-08T08:52:30.181Z,52.32
2022-10-08T08:54:56.639Z,51.78
2022-10-08T08:57:31.385Z,52.82
2022-10-08T09:00:00.124Z,51.66
2022-10-08T09:02:27.804Z,50.55
2022-10-08T09:04:55.644Z,51.63
2022-10-08T09:07:23.207Z,50.79
2022-10-08T09:09:51.325Z,49.97
2022-10-08T09:12:20.973Z,48.78
2022-10-08T09:14:53.608Z,49.47
2022-10-08T09:17:20.977Z,49.69
2022-10-08T09:19:47.551Z,47.83
2022-10-08T09:22:16.995Z,49.45
2022-10-08T09:24:43.389Z,48.77
2022-10-08T09:27:19.223Z,48.42
2022-10-08T09:29:45.950Z,48.01
2022-10-08T09:32:16.495Z,48.23
2022-10-08T09:34:43.293Z,49.98
2022-10-08T09:37:19.132Z,47.09
2022-10-08T09:40:05.347Z,48.41
2022-10-08T09:42:31.803Z,49.67
2022-10-08T09:45:00.591Z,47.94
2022-10-08T09:47:27.138Z,49.96
2022-10-08T09:50:06.927Z,47.90
2022-10-08T09:52:34.090Z,47.58
2022-10-08T09:55:07.432Z,47.00
2022-10-08T09:57:43.958Z,49.04
2022-10-08T10:00:24.771Z,50.06
2022-10-08T10:02:55.492Z,48.98
2022-10-08T10:05:25.727Z,48.28
2022-10-08T10:07:52.226Z,49.76
2022-10-08T10:10:21.571Z,49.01
2022-10-08T10:12:49.809Z,47.74
2022-10-08T10:15:18.520Z,46.83
2022-10-08T10:17:47.609Z,49.38
2022-10-08T10:20:20.036Z,48.94
2022-10-08T10:22:55.877Z,50.22
2022-10-08T10:25:28.401Z,47.74
2022-10-08T10:27:56.262Z,48.84
2022-10-08T10:30:23.422Z,47.68
2022-10-08T10:32:53.423Z,46.99
2022-10-08T10:35:27.299Z,46.60
2022-10-08T10:38:03.746Z,47.73
2022-10-08T10:40:50.406Z,47.01
2022-10-08T10:43:37.964Z,46.92
2022-10-08T10:46:09.033Z,46.23
2022-10-08T10:48:35.456Z,49.20
2022-10-08T10:51:04.992Z,45.85
2022-10-08T10:53:31.392Z,47.26
2022-10-08T10:56:00.926Z,45.65
2022-10-08T10:58:40.369Z,45.37
2022-10-08T11:01:27.476Z,47.64
2022-10-08T11:03:59.838Z,46.31
2022-10-08T11:06:45.130Z,45.25
2022-10-08T11:09:14.587Z,45.78
2022-10-08T11:11:41.917Z,44.96
2022-10-08T11:14:28.731Z,45.39
2022-10-08T11:17:21.315Z,43.98
2022-10-08T11:20:07.360Z,43.28
2022-10-08T11:22:46.383Z,45.32
2022-10-08T11:26:19.119Z,44.92
2022-10-08T11:28:59.405Z,44.82
2022-10-08T11:31:42.367Z,44.95
2022-10-08T11:34:23.844Z,45.14
2022-10-08T11:37:01.809Z,45.26
2022-10-08T11:39:35.844Z,45.27
2022-10-08T11:42:39.201Z,45.21
2022-10-08T11:45:40.319Z,44.70
2022-10-08T11:48:25.341Z,45.54
2022-10-08T11:50:51.907Z,45.59
2022-10-08T11:53:22.278Z,46.29
2022-10-08T11:55:58.162Z,46.02
2022-10-08T11:58:30.441Z,45.68
2022-10-08T12:01:05.516Z,45.74
2022-10-08T12:03:35.136Z,46.40
2022-10-08T12:06:15.264Z,44.20
2022-10-08T12:08:57.866Z,44.70
2022-10-08T12:11:44.724Z,45.39
2022-10-08T12:14:11.266Z,47.03
2022-10-08T12:16:59.001Z,45.02
2022-10-08T12:19:34.763Z,45.62
2022-10-08T12:22:25.096Z,45.37
2022-10-08T12:24:55.999Z,46.40
2022-10-08T12:27:31.216Z,45.72
2022-10-08T12:30:01.897Z,44.66
2022-10-08T12:32:33.045Z,45.39
2022-10-08T12:35:00.183Z,42.05
2022-10-08T12:37:39.731Z,45.24
2022-10-08T12:40:32.337Z,43.50
2022-10-08T12:43:16.957Z,44.16
2022-10-08T12:45:59.108Z,44.36
2022-10-08T12:48:44.068Z,45.38
2022-10-08T12:51:38.669Z,46.03
2022-10-08T12:54:05.327Z,46.22
2022-10-08T12:56:32.108Z,47.89
2022-10-08T12:59:01.544Z,46.49
2022-10-08T13:01:28.612Z,47.28
2022-10-08T13:04:10.592Z,45.94
2022-10-08T13:06:37.207Z,45.98
2022-10-08T13:09:25.243Z,46.61
2022-10-08T13:11:57.201Z,45.56
2022-10-08T13:14:30.396Z,43.93
2022-10-08T13:16:57.455Z,44.36
2022-10-08T13:19:31.600Z,44.65
2022-10-08T13:22:01.116Z,43.88
2022-10-08T13:24:33.343Z,44.29
2022-10-08T13:26:59.999Z,45.82
2022-10-08T13:29:28.631Z,44.83
2022-10-08T13:32:14.911Z,45.64
2022-10-08T13:34:42.543Z,43.35
2022-10-08T13:37:21.103Z,44.10
2022-10-08T13:39:53.525Z,43.26
2022-10-08T13:42:22.043Z,46.45
2022-10-08T13:44:48.614Z,46.36
2022-10-08T13:47:18.073Z,45.29
2022-10-08T13:49:44.901Z,44.59
2022-10-08T13:52:16.253Z,43.92
2022-10-08T13:54:43.807Z,43.12
2022-10-08T13:57:10.548Z,43.61
2022-10-08T13:59:37.361Z,43.15
2022-10-08T14:02:04.803Z,44.89
2022-10-08T14:04:31.353Z,46.17
2022-10-08T14:06:58.878Z,46.52
2022-10-08T14:09:27.641Z,46.70
2022-10-08T14:11:56.616Z,47.83
2022-10-08T14:14:24.162Z,47.91
2022-10-08T14:16:51.576Z,47.88
2022-10-08T14:19:20.373Z,47.35
2022-10-08T14:21:48.593Z,47.35
2022-10-08T14:24:15.157Z,47.23
2022-10-08T14:26:41.916Z,47.53
2022-10-08T14:29:08.489Z,45.96
2022-10-08T14:31:35.070Z,46.95
2022-10-08T14:34:01.744Z,46.96
2022-10-08T14:36:40.688Z,46.28
2022-10-08T14:39:07.742Z,46.36
2022-10-08T14:41:34.333Z,46.11
2022-10-08T14:44:00.880Z,48.34
2022-10-08T14:46:27.475Z,46.45
2022-10-08T14:48:53.951Z,48.12
2022-10-08T14:51:20.813Z,46.75
2022-10-08T14:53:47.421Z,47.87
2022-10-08T14:56:14.001Z,47.06
2022-10-08T14:58:40.573Z,48.13
2022-10-08T15:01:07.135Z,49.03
2022-10-08T15:03:33.989Z,46.39
2022-10-08T15:06:00.993Z,47.11
2022-10-08T15:08:28.223Z,46.91
2022-10-08T15:10:54.809Z,47.68
2022-10-08T15:13:21.525Z,48.09
2022-10-08T15:15:48.560Z,48.55
2022-10-08T15:18:15.126Z,47.44
2022-10-08T15:20:41.651Z,49.16
2022-10-08T15:23:10.251Z,48.04
2022-10-08T15:25:37.118Z,47.77
2022-10-08T15:28:04.718Z,48.04
2022-10-08T15:30:31.910Z,49.90
2022-10-08T15:33:03.040Z,49.50
2022-10-08T15:35:34.646Z,48.10
2022-10-08T15:38:01.252Z,49.54
2022-10-08T15:40:30.277Z,49.42
2022-10-08T15:42:56.857Z,49.89
2022-10-08T15:45:23.371Z,50.86
2022-10-08T15:47:50.011Z,50.54
2022-10-08T15:50:16.589Z,49.04
2022-10-08T15:52:46.311Z,51.57
2022-10-08T15:55:13.258Z,50.27
2022-10-08T15:57:39.878Z,51.89
2022-10-08T16:00:07.009Z,50.72
2022-10-08T16:02:38.548Z,51.15
2022-10-08T16:05:05.995Z,52.32
2022-10-08T16:07:40.046Z,52.12
2022-10-08T16:10:07.410Z,51.47
2022-10-08T16:12:33.930Z,52.94
2022-10-08T16:15:00.802Z,52.81
2022-10-08T16:17:28.177Z,52.60
2022-10-08T16:19:54.763Z,53.23
2022-10-08T16:22:21.323Z,52.19
2022-10-08T16:24:47.858Z,54.05
2022-10-08T16:27:14.404Z,54.37
2022-10-08T16:29:40.928Z,54.08
2022-10-08T16:32:07.501Z,53.39
2022-10-08T16:34:35.991Z,54.31
2022-10-08T16:37:04.817Z,54.48
2022-10-08T16:39:31.429Z,54.65
2022-10-08T16:41:58.034Z,54.78
2022-10-08T16:44:24.607Z,55.51
2022-10-08T16:46:52.803Z,55.71
2022-10-08T16:49:26.033Z,55.93
2022-10-08T16:52:06.832Z,55.72
2022-10-08T16:54:33.836Z,56.81
2022-10-08T16:57:00.556Z,56.82
2022-10-08T16:59:28.774Z,56.93
2022-10-08T17:01:57.933Z,57.68
2022-10-08T17:04:26.744Z,58.22
2022-10-08T17:06:53.520Z,58.73
2022-10-08T17:09:20.821Z,58.39
2022-10-08T17:11:48.035Z,58.31
2022-10-08T17:14:14.692Z,58.49
2022-10-08T17:16:43.420Z,59.30
2022-10-08T17:19:10.438Z,59.45
2022-10-08T17:21:37.103Z,60.29
2022-10-08T17:24:03.773Z,60.76
2022-10-08T17:26:31.358Z,61.71
2022-10-08T17:29:04.051Z,62.02
2022-10-08T17:31:31.717Z,61.47
2022-10-08T17:33:59.377Z,61.22
2022-10-08T17:36:36.645Z,61.09
2022-10-08T17:39:05.837Z,61.58
2022-10-08T17:41:34.712Z,62.24
2022-10-08T17:44:03.331Z,61.85
2022-10-08T17:46:35.426Z,62.05
2022-10-08T17:49:02.438Z,61.85
2022-10-08T17:51:30.100Z,61.90
2022-10-08T17:54:01.564Z,62.04
2022-10-08T17:56:28.840Z,62.25
2022-10-08T17:58:55.825Z,62.40
2022-10-08T18:01:28.326Z,62.55
2022-10-08T18:03:59.589Z,62.88
2022-10-08T18:06:26.770Z,62.71
2022-10-08T18:08:57.438Z,62.53
2022-10-08T18:11:24.555Z,62.78
2022-10-08T18:13:51.208Z,63.08
2022-10-08T18:16:19.137Z,63.15
2022-10-08T18:18:46.313Z,62.94
2022-10-08T18:21:14.686Z,62.91
2022-10-08T18:23:42.822Z,63.24
2022-10-08T18:26:34.634Z,63.37
2022-10-08T18:29:06.627Z,62.96
2022-10-08T18:31:33.803Z,63.37
2022-10-08T18:34:03.336Z,63.88
2022-10-08T18:36:32.249Z,64.03
2022-10-08T18:39:04.685Z,63.66
2022-10-08T18:41:38.010Z,63.50
2022-10-08T18:44:06.039Z,63.45
2022-10-08T18:46:36.429Z,63.68
2022-10-08T18:49:03.807Z,63.41
2022-10-08T18:51:30.744Z,63.68
2022-10-08T18:53:58.445Z,63.87
2022-10-08T18:56:30.071Z,63.96
2022-10-08T18:59:03.677Z,63.70
2022-10-08T19:01:35.691Z,64.02
2022-10-08T19:04:04.623Z,64.74
2022-10-08T19:06:33.679Z,64.70
2022-10-08T19:09:01.083Z,64.89
2022-10-08T19:11:33.630Z,65.98
2022-10-08T19:14:00.820Z,67.16
2022-10-08T19:16:27.373Z,66.94
2022-10-08T19:18:57.055Z,66.92
2022-10-08T19:21:25.259Z,66.67
2022-10-08T19:23:52.238Z,66.82
2022-10-08T19:26:18.910Z,66.75
2022-10-08T19:28:47.906Z,66.52
2022-10-08T19:31:16.982Z,65.89
2022-10-08T19:33:50.241Z,66.02
2022-10-08T19:36:17.807Z,65.70
2022-10-08T19:38:45.303Z,65.78
2022-10-08T19:41:12.219Z,65.18
2022-10-08T19:43:42.037Z,65.02
2022-10-08T19:46:08.598Z,64.89
2022-10-08T19:48:35.171Z,64.41
2022-10-08T19:51:06.073Z,64.34
2022-10-08T19:53:33.345Z,64.71
2022-10-08T19:56:02.871Z,65.24
2022-10-08T19:58:29.407Z,65.07
2022-10-08T20:01:03.988Z,65.42
2022-10-08T20:03:30.559Z,65.34
2022-10-08T20:05:57.090Z,65.67
2022-10-08T20:08:24.185Z,66.08
2022-10-08T20:10:50.794Z,65.55
2022-10-08T20:13:17.455Z,65.76
2022-10-08T20:15:47.685Z,65.51
2022-10-08T20:18:18.237Z,65.91
2022-10-08T20:20:44.788Z,65.75
2022-10-08T20:23:11.408Z,66.03
2022-10-08T20:25:38.221Z,65.62
2022-10-08T20:28:04.918Z,65.48
2022-10-08T20:30:31.668Z,65.27
2022-10-08T20:32:58.292Z,65.33
2022-10-08T20:35:24.845Z,65.61
2022-10-08T20:37:51.361Z,65.94
2022-10-08T20:40:17.903Z,66.52
2022-10-08T20:42:44.409Z,66.84
2022-10-08T20:45:12.007Z,66.82
2022-10-08T20:47:38.513Z,66.38
2022-10-08T20:50:05.487Z,66.64
2022-10-08T20:52:31.980Z,67.14
2022-10-08T20:54:58.553Z,67.26
2022-10-08T20:57:25.088Z,67.20
2022-10-08T20:59:51.633Z,67.13
2022-10-08T21:02:19.926Z,66.84
2022-10-08T21:04:46.554Z,67.37
2022-10-08T21:07:13.641Z,67.02
2022-10-08T21:09:40.133Z,68.28
2022-10-08T21:12:10.691Z,68.20
2022-10-08T21:14:37.193Z,68.55
2022-10-08T21:17:03.827Z,67.16
2022-10-08T21:19:30.431Z,67.20
2022-10-08T21:21:57.439Z,69.33
2022-10-08T21:24:27.566Z,70.91
2022-10-08T21:26:54.094Z,71.13
2022-10-08T21:29:20.656Z,69.34
2022-10-08T21:31:47.245Z,68.92
2022-10-08T21:34:13.886Z,69.26
2022-10-08T21:36:41.025Z,68.70
2022-10-08T21:39:13.512Z,69.53
2022-10-08T21:41:51.783Z,69.35
2022-10-08T21:44:18.868Z,69.36
2022-10-08T21:46:45.472Z,70.15
2022-10-08T21:49:17.436Z,69.80
2022-10-08T21:51:44.359Z,69.38
2022-10-08T21:54:11.773Z,71.17
2022-10-08T21:56:39.707Z,70.67
2022-10-08T21:59:06.834Z,70.55
2022-10-08T22:01:37.806Z,70.77
2022-10-08T22:04:09.375Z,70.28
2022-10-08T22:06:39.529Z,69.54
2022-10-08T22:09:09.279Z,69.97
2022-10-08T22:11:35.869Z,69.07
2022-10-08T22:14:02.545Z,69.04
2022-10-08T22:16:29.689Z,69.19
2022-10-08T22:18:57.097Z,68.69
2022-10-08T22:21:24.307Z,69.21
2022-10-08T22:23:51.537Z,69.21
2022-10-08T22:26:20.748Z,69.50
2022-10-08T22:28:47.792Z,69.25
2022-10-08T22:31:16.026Z,69.11
2022-10-08T22:33:42.830Z,69.29
2022-10-08T22:36:23.569Z,69.52
2022-10-08T22:38:49.982Z,69.71
2022-10-08T22:41:22.175Z,70.06
2022-10-08T22:43:48.722Z,70.52
2022-10-08T22:46:20.922Z,70.31
2022-10-08T22:48:47.769Z,70.39
2022-10-08T22:51:16.970Z,70.35
2022-10-08T22:53:44.020Z,70.11
2022-10-08T22:56:14.216Z,69.68
2022-10-08T22:58:40.987Z,70.27
2022-10-08T23:01:11.097Z,69.93
2022-10-08T23:03:37.963Z,70.18
2022-10-08T23:06:13.366Z,70.03
2022-10-08T23:08:40.219Z,70.48
2022-10-08T23:11:07.055Z,70.52
2022-10-08T23:13:34.160Z,69.71
2022-10-08T23:16:05.238Z,69.87
2022-10-08T23:18:33.907Z,69.89
2022-10-08T23:21:02.410Z,70.03
2022-10-08T23:23:29.068Z,69.92
2022-10-08T23:25:57.814Z,69.27
2022-10-08T23:28:24.870Z,69.73
2022-10-08T23:30:51.507Z,69.81
2022-10-08T23:33:18.185Z,70.83
2022-10-08T23:35:44.834Z,69.98
2022-10-08T23:38:11.348Z,69.46
2022-10-08T23:40:37.959Z,69.50
2022-10-08T23:43:04.606Z,69.61
2022-10-08T23:45:31.227Z,69.46
2022-10-08T23:47:57.837Z,68.72
2022-10-08T23:50:24.427Z,69.28
2022-10-08T23:52:51.281Z,69.71
2022-10-08T23:55:18.081Z,69.63
2022-10-08T23:57:44.635Z,69.30
